sensor_id;sensor_type;location;lat;lon;timestamp;P1;durP1;ratioP1;P2;durP2;ratioP2
8435;SDS011;4255;48.730;9.156;2024-01-16T00:00:33;11.80;;;7.63;;
8435;SDS011;4255;48.730;9.156;2024-01-16T00:02:59;7.33;;;6.33;;
8435;SDS011;4255;48.730;9.156;2024-01-16T00:05:24;10.30;;;7.73;;
8435;SDS011;4255;48.730;9.156;2024-01-16T00:07:50;14.07;;;7.77;;
8435;SDS011;4255;48.730;9.156;2024-01-16T00:10:15;9.67;;;6.23;;
8435;SDS011;4255;48.730;9.156;2024-01-16T00:12:41;7.30;;;6.60;;
8435;SDS011;4255;48.730;9.156;2024-01-16T00:15:07;9.30;;;6.50;;
8435;SDS011;4255;48.730;9.156;2024-01-16T00:17:33;9.98;;;7.78;;
8435;SDS011;4255;48.730;9.156;2024-01-16T00:19:59;10.38;;;6.88;;
8435;SDS011;4255;48.730;9.156;2024-01-16T00:22:27;10.27;;;7.72;;
8435;SDS011;4255;48.730;9.156;2024-01-16T00:24:53;11.38;;;6.78;;
8435;SDS011;4255;48.730;9.156;2024-01-16T00:27:18;9.80;;;7.77;;
8435;SDS011;4255;48.730;9.156;2024-01-16T00:29:44;9.67;;;7.20;;
8435;SDS011;4255;48.730;9.156;2024-01-16T00:32:09;14.10;;;6.77;;
8435;SDS011;4255;48.730;9.156;2024-01-16T00:34:35;9.63;;;5.00;;
8435;SDS011;4255;48.730;9.156;2024-01-16T00:37:01;4.77;;;4.37;;
8435;SDS011;4255;48.730;9.156;2024-01-16T00:39:26;9.07;;;6.00;;
8435;SDS011;4255;48.730;9.156;2024-01-16T00:41:52;5.93;;;5.43;;
8435;SDS011;4255;48.730;9.156;2024-01-16T00:44:17;8.43;;;5.80;;
8435;SDS011;4255;48.730;9.156;2024-01-16T00:46:43;5.10;;;4.30;;
8435;SDS011;4255;48.730;9.156;2024-01-16T00:49:08;7.97;;;5.57;;
8435;SDS011;4255;48.730;9.156;2024-01-16T00:51:34;7.27;;;6.10;;
8435;SDS011;4255;48.730;9.156;2024-01-16T00:54:00;7.70;;;5.45;;
8435;SDS011;4255;48.730;9.156;2024-01-16T00:56:26;9.87;;;7.10;;
8435;SDS011;4255;48.730;9.156;2024-01-16T00:58:57;12.90;;;8.63;;
8435;SDS011;4255;48.730;9.156;2024-01-16T01:01:22;7.10;;;6.40;;
8435;SDS011;4255;48.730;9.156;2024-01-16T01:03:48;8.03;;;4.70;;
8435;SDS011;4255;48.730;9.156;2024-01-16T01:06:13;11.10;;;5.60;;
8435;SDS011;4255;48.730;9.156;2024-01-16T01:08:39;10.63;;;6.47;;
8435;SDS011;4255;48.730;9.156;2024-01-16T01:11:05;13.30;;;7.40;;
8435;SDS011;4255;48.730;9.156;2024-01-16T01:13:30;8.87;;;5.90;;
8435;SDS011;4255;48.730;9.156;2024-01-16T01:15:56;9.83;;;6.30;;
8435;SDS011;4255;48.730;9.156;2024-01-16T01:18:21;6.67;;;5.10;;
8435;SDS011;4255;48.730;9.156;2024-01-16T01:20:47;8.50;;;6.50;;
8435;SDS011;4255;48.730;9.156;2024-01-16T01:23:13;8.10;;;5.03;;
8435;SDS011;4255;48.730;9.156;2024-01-16T01:25:38;5.90;;;5.30;;
8435;SDS011;4255;48.730;9.156;2024-01-16T01:28:04;8.07;;;5.97;;
8435;SDS011;4255;48.730;9.156;2024-01-16T01:30:31;11.00;;;6.80;;
8435;SDS011;4255;48.730;9.156;2024-01-16T01:32:57;8.10;;;7.25;;
8435;SDS011;4255;48.730;9.156;2024-01-16T01:35:23;11.03;;;7.53;;
8435;SDS011;4255;48.730;9.156;2024-01-16T01:37:48;7.33;;;5.87;;
8435;SDS011;4255;48.730;9.156;2024-01-16T01:40:14;8.63;;;6.17;;
8435;SDS011;4255;48.730;9.156;2024-01-16T01:42:41;11.07;;;6.57;;
8435;SDS011;4255;48.730;9.156;2024-01-16T01:45:08;7.15;;;6.55;;
8435;SDS011;4255;48.730;9.156;2024-01-16T01:47:37;8.35;;;7.00;;
8435;SDS011;4255;48.730;9.156;2024-01-16T01:50:05;11.20;;;6.70;;
8435;SDS011;4255;48.730;9.156;2024-01-16T01:52:33;6.65;;;5.95;;
8435;SDS011;4255;48.730;9.156;2024-01-16T01:54:58;7.80;;;5.20;;
8435;SDS011;4255;48.730;9.156;2024-01-16T01:57:25;8.02;;;6.28;;
8435;SDS011;4255;48.730;9.156;2024-01-16T01:59:51;6.78;;;6.03;;
8435;SDS011;4255;48.730;9.156;2024-01-16T02:02:17;8.57;;;5.80;;
8435;SDS011;4255;48.730;9.156;2024-01-16T02:04:43;8.85;;;6.80;;
8435;SDS011;4255;48.730;9.156;2024-01-16T02:07:11;8.52;;;5.50;;
8435;SDS011;4255;48.730;9.156;2024-01-16T02:09:37;7.27;;;6.23;;
8435;SDS011;4255;48.730;9.156;2024-01-16T02:12:03;7.03;;;5.13;;
8435;SDS011;4255;48.730;9.156;2024-01-16T02:14:30;7.25;;;5.50;;
8435;SDS011;4255;48.730;9.156;2024-01-16T02:16:55;8.13;;;5.63;;
8435;SDS011;4255;48.730;9.156;2024-01-16T02:19:21;8.37;;;5.47;;
8435;SDS011;4255;48.730;9.156;2024-01-16T02:21:47;7.37;;;6.30;;
8435;SDS011;4255;48.730;9.156;2024-01-16T02:24:16;6.38;;;5.72;;
8435;SDS011;4255;48.730;9.156;2024-01-16T02:26:43;6.90;;;6.30;;
8435;SDS011;4255;48.730;9.156;2024-01-16T02:29:09;9.23;;;7.13;;
8435;SDS011;4255;48.730;9.156;2024-01-16T02:31:35;6.23;;;5.60;;
8435;SDS011;4255;48.730;9.156;2024-01-16T02:34:01;8.10;;;5.88;;
8435;SDS011;4255;48.730;9.156;2024-01-16T02:36:27;10.80;;;6.77;;
8435;SDS011;4255;48.730;9.156;2024-01-16T02:38:54;6.85;;;5.85;;
8435;SDS011;4255;48.730;9.156;2024-01-16T02:41:19;7.13;;;6.40;;
8435;SDS011;4255;48.730;9.156;2024-01-16T02:43:46;7.65;;;6.35;;
8435;SDS011;4255;48.730;9.156;2024-01-16T02:46:11;10.63;;;5.53;;
8435;SDS011;4255;48.730;9.156;2024-01-16T02:48:38;12.45;;;7.70;;
8435;SDS011;4255;48.730;9.156;2024-01-16T02:51:04;10.18;;;5.70;;
8435;SDS011;4255;48.730;9.156;2024-01-16T02:53:30;8.27;;;6.35;;
8435;SDS011;4255;48.730;9.156;2024-01-16T02:55:56;7.15;;;6.32;;
8435;SDS011;4255;48.730;9.156;2024-01-16T02:58:27;10.00;;;6.03;;
8435;SDS011;4255;48.730;9.156;2024-01-16T03:00:54;10.70;;;6.55;;
8435;SDS011;4255;48.730;9.156;2024-01-16T03:03:19;8.98;;;6.13;;
8435;SDS011;4255;48.730;9.156;2024-01-16T03:05:46;7.70;;;5.82;;
8435;SDS011;4255;48.730;9.156;2024-01-16T03:08:12;8.90;;;6.63;;
8435;SDS011;4255;48.730;9.156;2024-01-16T03:10:38;6.07;;;5.47;;
8435;SDS011;4255;48.730;9.156;2024-01-16T03:13:04;6.10;;;4.70;;
8435;SDS011;4255;48.730;9.156;2024-01-16T03:15:30;3.45;;;3.17;;
8435;SDS011;4255;48.730;9.156;2024-01-16T03:17:56;11.57;;;7.83;;
8435;SDS011;4255;48.730;9.156;2024-01-16T03:20:22;9.88;;;6.50;;
8435;SDS011;4255;48.730;9.156;2024-01-16T03:22:48;10.90;;;6.83;;
8435;SDS011;4255;48.730;9.156;2024-01-16T03:25:14;8.67;;;7.33;;
8435;SDS011;4255;48.730;9.156;2024-01-16T03:27:40;8.32;;;6.53;;
8435;SDS011;4255;48.730;9.156;2024-01-16T03:30:06;9.40;;;6.70;;
8435;SDS011;4255;48.730;9.156;2024-01-16T03:32:33;7.50;;;6.70;;
8435;SDS011;4255;48.730;9.156;2024-01-16T03:34:59;6.18;;;5.57;;
8435;SDS011;4255;48.730;9.156;2024-01-16T03:37:25;9.13;;;6.53;;
8435;SDS011;4255;48.730;9.156;2024-01-16T03:39:50;11.03;;;5.80;;
8435;SDS011;4255;48.730;9.156;2024-01-16T03:42:16;7.90;;;6.80;;
8435;SDS011;4255;48.730;9.156;2024-01-16T03:44:42;8.10;;;5.80;;
8435;SDS011;4255;48.730;9.156;2024-01-16T03:47:08;6.40;;;5.50;;
8435;SDS011;4255;48.730;9.156;2024-01-16T03:49:33;5.97;;;5.40;;
8435;SDS011;4255;48.730;9.156;2024-01-16T03:51:59;10.37;;;6.10;;
8435;SDS011;4255;48.730;9.156;2024-01-16T03:54:25;9.20;;;6.43;;
8435;SDS011;4255;48.730;9.156;2024-01-16T03:56:51;12.60;;;6.30;;
8435;SDS011;4255;48.730;9.156;2024-01-16T03:59:16;9.57;;;6.50;;
8435;SDS011;4255;48.730;9.156;2024-01-16T04:01:42;6.90;;;5.73;;
8435;SDS011;4255;48.730;9.156;2024-01-16T04:04:09;7.50;;;6.57;;
8435;SDS011;4255;48.730;9.156;2024-01-16T04:06:35;6.32;;;5.43;;
8435;SDS011;4255;48.730;9.156;2024-01-16T04:09:01;11.32;;;5.40;;
8435;SDS011;4255;48.730;9.156;2024-01-16T04:11:28;7.97;;;5.90;;
8435;SDS011;4255;48.730;9.156;2024-01-16T04:13:53;7.00;;;6.27;;
8435;SDS011;4255;48.730;9.156;2024-01-16T04:16:19;8.13;;;5.97;;
8435;SDS011;4255;48.730;9.156;2024-01-16T04:18:45;7.67;;;5.80;;
8435;SDS011;4255;48.730;9.156;2024-01-16T04:21:10;9.70;;;5.00;;
8435;SDS011;4255;48.730;9.156;2024-01-16T04:23:36;7.67;;;5.70;;
8435;SDS011;4255;48.730;9.156;2024-01-16T04:26:02;6.73;;;4.97;;
8435;SDS011;4255;48.730;9.156;2024-01-16T04:28:27;7.77;;;5.53;;
8435;SDS011;4255;48.730;9.156;2024-01-16T04:30:53;8.10;;;5.97;;
8435;SDS011;4255;48.730;9.156;2024-01-16T04:33:19;7.63;;;5.50;;
8435;SDS011;4255;48.730;9.156;2024-01-16T04:35:44;9.73;;;6.40;;
8435;SDS011;4255;48.730;9.156;2024-01-16T04:38:10;10.43;;;7.37;;
8435;SDS011;4255;48.730;9.156;2024-01-16T04:40:36;9.57;;;6.43;;
8435;SDS011;4255;48.730;9.156;2024-01-16T04:43:01;9.93;;;5.57;;
8435;SDS011;4255;48.730;9.156;2024-01-16T04:45:27;7.13;;;5.43;;
8435;SDS011;4255;48.730;9.156;2024-01-16T04:47:53;15.57;;;5.97;;
8435;SDS011;4255;48.730;9.156;2024-01-16T04:50:19;6.80;;;5.90;;
8435;SDS011;4255;48.730;9.156;2024-01-16T04:52:45;7.23;;;5.63;;
8435;SDS011;4255;48.730;9.156;2024-01-16T04:55:11;7.90;;;6.00;;
8435;SDS011;4255;48.730;9.156;2024-01-16T04:57:36;10.43;;;5.93;;
8435;SDS011;4255;48.730;9.156;2024-01-16T05:00:02;8.07;;;6.70;;
8435;SDS011;4255;48.730;9.156;2024-01-16T05:02:32;9.18;;;6.45;;
8435;SDS011;4255;48.730;9.156;2024-01-16T05:04:59;10.25;;;5.50;;
8435;SDS011;4255;48.730;9.156;2024-01-16T05:07:24;7.10;;;6.37;;
8435;SDS011;4255;48.730;9.156;2024-01-16T05:09:51;7.57;;;6.65;;
8435;SDS011;4255;48.730;9.156;2024-01-16T05:12:17;8.25;;;6.43;;
8435;SDS011;4255;48.730;9.156;2024-01-16T05:14:42;7.80;;;5.23;;
8435;SDS011;4255;48.730;9.156;2024-01-16T05:17:08;8.90;;;6.87;;
8435;SDS011;4255;48.730;9.156;2024-01-16T05:19:34;9.50;;;6.70;;
8435;SDS011;4255;48.730;9.156;2024-01-16T05:21:59;8.63;;;5.70;;
8435;SDS011;4255;48.730;9.156;2024-01-16T05:24:25;9.70;;;6.57;;
8435;SDS011;4255;48.730;9.156;2024-01-16T05:26:50;7.10;;;5.73;;
8435;SDS011;4255;48.730;9.156;2024-01-16T05:29:17;8.33;;;6.37;;
8435;SDS011;4255;48.730;9.156;2024-01-16T05:31:43;7.63;;;6.88;;
8435;SDS011;4255;48.730;9.156;2024-01-16T05:34:09;8.70;;;7.57;;
8435;SDS011;4255;48.730;9.156;2024-01-16T05:36:35;12.30;;;9.30;;
8435;SDS011;4255;48.730;9.156;2024-01-16T05:39:01;8.43;;;6.97;;
8435;SDS011;4255;48.730;9.156;2024-01-16T05:41:27;8.57;;;6.07;;
8435;SDS011;4255;48.730;9.156;2024-01-16T05:43:57;8.95;;;5.75;;
8435;SDS011;4255;48.730;9.156;2024-01-16T05:46:22;7.83;;;6.00;;
8435;SDS011;4255;48.730;9.156;2024-01-16T05:48:48;10.27;;;7.10;;
8435;SDS011;4255;48.730;9.156;2024-01-16T05:51:13;9.17;;;6.10;;
8435;SDS011;4255;48.730;9.156;2024-01-16T05:53:39;10.20;;;7.13;;
8435;SDS011;4255;48.730;9.156;2024-01-16T05:56:05;12.83;;;8.03;;
8435;SDS011;4255;48.730;9.156;2024-01-16T05:58:30;7.13;;;6.23;;
8435;SDS011;4255;48.730;9.156;2024-01-16T06:01:00;10.63;;;5.63;;
8435;SDS011;4255;48.730;9.156;2024-01-16T06:03:26;9.53;;;5.70;;
8435;SDS011;4255;48.730;9.156;2024-01-16T06:05:51;11.63;;;6.07;;
8435;SDS011;4255;48.730;9.156;2024-01-16T06:08:17;8.50;;;5.30;;
8435;SDS011;4255;48.730;9.156;2024-01-16T06:10:44;8.00;;;5.50;;
8435;SDS011;4255;48.730;9.156;2024-01-16T06:13:10;13.18;;;6.93;;
8435;SDS011;4255;48.730;9.156;2024-01-16T06:15:36;8.40;;;5.93;;
8435;SDS011;4255;48.730;9.156;2024-01-16T06:18:01;7.60;;;6.23;;
8435;SDS011;4255;48.730;9.156;2024-01-16T06:20:27;10.87;;;6.03;;
8435;SDS011;4255;48.730;9.156;2024-01-16T06:22:54;5.70;;;5.20;;
8435;SDS011;4255;48.730;9.156;2024-01-16T06:25:19;11.50;;;5.67;;
8435;SDS011;4255;48.730;9.156;2024-01-16T06:27:45;6.60;;;6.10;;
8435;SDS011;4255;48.730;9.156;2024-01-16T06:30:11;5.13;;;4.70;;
8435;SDS011;4255;48.730;9.156;2024-01-16T06:32:36;8.80;;;5.77;;
8435;SDS011;4255;48.730;9.156;2024-01-16T06:35:02;6.93;;;6.23;;
8435;SDS011;4255;48.730;9.156;2024-01-16T06:37:28;7.57;;;6.00;;
8435;SDS011;4255;48.730;9.156;2024-01-16T06:39:53;7.30;;;5.10;;
8435;SDS011;4255;48.730;9.156;2024-01-16T06:42:19;6.53;;;5.93;;
8435;SDS011;4255;48.730;9.156;2024-01-16T06:44:44;7.13;;;5.47;;
8435;SDS011;4255;48.730;9.156;2024-01-16T06:47:10;6.60;;;6.00;;
8435;SDS011;4255;48.730;9.156;2024-01-16T06:49:35;7.80;;;4.67;;
8435;SDS011;4255;48.730;9.156;2024-01-16T06:52:01;11.90;;;5.00;;
8435;SDS011;4255;48.730;9.156;2024-01-16T06:54:27;7.40;;;5.73;;
8435;SDS011;4255;48.730;9.156;2024-01-16T06:56:53;6.50;;;5.90;;
8435;SDS011;4255;48.730;9.156;2024-01-16T06:59:18;6.87;;;6.00;;
8435;SDS011;4255;48.730;9.156;2024-01-16T07:01:44;7.90;;;5.70;;
8435;SDS011;4255;48.730;9.156;2024-01-16T07:04:10;7.07;;;6.20;;
8435;SDS011;4255;48.730;9.156;2024-01-16T07:06:36;5.67;;;5.07;;
8435;SDS011;4255;48.730;9.156;2024-01-16T07:09:01;6.37;;;5.50;;
8435;SDS011;4255;48.730;9.156;2024-01-16T07:11:30;7.53;;;6.00;;
8435;SDS011;4255;48.730;9.156;2024-01-16T07:13:56;7.40;;;5.60;;
8435;SDS011;4255;48.730;9.156;2024-01-16T07:16:22;6.30;;;5.28;;
8435;SDS011;4255;48.730;9.156;2024-01-16T07:18:47;12.00;;;6.30;;
8435;SDS011;4255;48.730;9.156;2024-01-16T07:21:19;6.60;;;5.63;;
8435;SDS011;4255;48.730;9.156;2024-01-16T07:23:45;6.70;;;5.45;;
8435;SDS011;4255;48.730;9.156;2024-01-16T07:26:11;7.80;;;6.30;;
8435;SDS011;4255;48.730;9.156;2024-01-16T07:28:37;9.40;;;6.00;;
8435;SDS011;4255;48.730;9.156;2024-01-16T07:31:02;5.80;;;5.20;;
8435;SDS011;4255;48.730;9.156;2024-01-16T07:33:28;6.70;;;5.70;;
8435;SDS011;4255;48.730;9.156;2024-01-16T07:35:54;8.50;;;5.07;;
8435;SDS011;4255;48.730;9.156;2024-01-16T07:38:20;8.57;;;5.60;;
8435;SDS011;4255;48.730;9.156;2024-01-16T07:40:45;7.80;;;4.50;;
8435;SDS011;4255;48.730;9.156;2024-01-16T07:43:11;9.07;;;5.60;;
8435;SDS011;4255;48.730;9.156;2024-01-16T07:45:37;6.83;;;5.10;;
8435;SDS011;4255;48.730;9.156;2024-01-16T07:48:02;5.07;;;4.60;;
8435;SDS011;4255;48.730;9.156;2024-01-16T07:50:28;5.40;;;4.50;;
8435;SDS011;4255;48.730;9.156;2024-01-16T07:52:54;5.50;;;5.00;;
8435;SDS011;4255;48.730;9.156;2024-01-16T07:55:19;11.00;;;5.87;;
8435;SDS011;4255;48.730;9.156;2024-01-16T07:57:45;5.27;;;4.77;;
8435;SDS011;4255;48.730;9.156;2024-01-16T08:00:10;7.73;;;5.33;;
8435;SDS011;4255;48.730;9.156;2024-01-16T08:02:37;6.28;;;5.15;;
8435;SDS011;4255;48.730;9.156;2024-01-16T08:05:02;8.90;;;6.20;;
8435;SDS011;4255;48.730;9.156;2024-01-16T08:07:29;11.30;;;7.38;;
8435;SDS011;4255;48.730;9.156;2024-01-16T08:09:54;13.37;;;6.37;;
8435;SDS011;4255;48.730;9.156;2024-01-16T08:12:20;8.82;;;5.20;;
8435;SDS011;4255;48.730;9.156;2024-01-16T08:14:46;10.20;;;6.13;;
8435;SDS011;4255;48.730;9.156;2024-01-16T08:17:12;6.83;;;6.23;;
8435;SDS011;4255;48.730;9.156;2024-01-16T08:19:37;7.60;;;4.60;;
8435;SDS011;4255;48.730;9.156;2024-01-16T08:22:03;10.20;;;5.63;;
8435;SDS011;4255;48.730;9.156;2024-01-16T08:24:29;6.90;;;5.10;;
8435;SDS011;4255;48.730;9.156;2024-01-16T08:26:55;6.17;;;5.43;;
8435;SDS011;4255;48.730;9.156;2024-01-16T08:29:22;5.05;;;4.55;;
8435;SDS011;4255;48.730;9.156;2024-01-16T08:31:49;5.95;;;5.45;;
8435;SDS011;4255;48.730;9.156;2024-01-16T08:34:15;6.05;;;5.40;;
8435;SDS011;4255;48.730;9.156;2024-01-16T08:36:41;6.90;;;5.07;;
8435;SDS011;4255;48.730;9.156;2024-01-16T08:39:06;7.10;;;4.90;;
8435;SDS011;4255;48.730;9.156;2024-01-16T08:41:32;9.60;;;6.50;;
8435;SDS011;4255;48.730;9.156;2024-01-16T08:43:57;5.63;;;5.03;;
8435;SDS011;4255;48.730;9.156;2024-01-16T08:46:23;4.87;;;4.40;;
8435;SDS011;4255;48.730;9.156;2024-01-16T08:48:49;7.47;;;5.03;;
8435;SDS011;4255;48.730;9.156;2024-01-16T08:51:14;7.30;;;4.13;;
8435;SDS011;4255;48.730;9.156;2024-01-16T08:53:40;5.03;;;4.63;;
8435;SDS011;4255;48.730;9.156;2024-01-16T08:56:07;7.18;;;5.45;;
8435;SDS011;4255;48.730;9.156;2024-01-16T08:58:33;5.32;;;4.82;;
8435;SDS011;4255;48.730;9.156;2024-01-16T09:01:03;5.60;;;4.97;;
8435;SDS011;4255;48.730;9.156;2024-01-16T09:03:32;6.55;;;4.40;;
8435;SDS011;4255;48.730;9.156;2024-01-16T09:05:58;5.80;;;5.20;;
8435;SDS011;4255;48.730;9.156;2024-01-16T09:08:25;6.63;;;4.40;;
8435;SDS011;4255;48.730;9.156;2024-01-16T09:10:52;6.05;;;5.32;;
8435;SDS011;4255;48.730;9.156;2024-01-16T09:13:18;10.55;;;5.10;;
8435;SDS011;4255;48.730;9.156;2024-01-16T09:15:48;7.03;;;4.93;;
8435;SDS011;4255;48.730;9.156;2024-01-16T09:18:14;5.78;;;5.25;;
8435;SDS011;4255;48.730;9.156;2024-01-16T09:20:41;7.80;;;5.45;;
8435;SDS011;4255;48.730;9.156;2024-01-16T09:23:07;5.60;;;5.10;;
8435;SDS011;4255;48.730;9.156;2024-01-16T09:25:34;12.10;;;6.00;;
8435;SDS011;4255;48.730;9.156;2024-01-16T09:27:59;8.30;;;5.60;;
8435;SDS011;4255;48.730;9.156;2024-01-16T09:30:25;5.88;;;5.38;;
8435;SDS011;4255;48.730;9.156;2024-01-16T09:32:51;6.13;;;5.13;;
8435;SDS011;4255;48.730;9.156;2024-01-16T09:35:17;6.47;;;5.47;;
8435;SDS011;4255;48.730;9.156;2024-01-16T09:37:43;11.90;;;8.60;;
8435;SDS011;4255;48.730;9.156;2024-01-16T09:40:08;9.37;;;6.57;;
8435;SDS011;4255;48.730;9.156;2024-01-16T09:42:35;6.38;;;5.45;;
8435;SDS011;4255;48.730;9.156;2024-01-16T09:45:00;7.60;;;4.50;;
8435;SDS011;4255;48.730;9.156;2024-01-16T09:47:32;6.63;;;5.53;;
8435;SDS011;4255;48.730;9.156;2024-01-16T09:49:59;5.68;;;4.93;;
8435;SDS011;4255;48.730;9.156;2024-01-16T09:52:27;30.08;;;14.52;;
8435;SDS011;4255;48.730;9.156;2024-01-16T09:54:54;35.72;;;16.33;;
8435;SDS011;4255;48.730;9.156;2024-01-16T09:57:20;84.13;;;32.33;;
8435;SDS011;4255;48.730;9.156;2024-01-16T09:59:50;28.35;;;14.00;;
8435;SDS011;4255;48.730;9.156;2024-01-16T10:02:19;7.32;;;5.70;;
8435;SDS011;4255;48.730;9.156;2024-01-16T10:04:48;7.32;;;5.65;;
8435;SDS011;4255;48.730;9.156;2024-01-16T10:07:14;6.43;;;5.10;;
8435;SDS011;4255;48.730;9.156;2024-01-16T10:09:42;5.70;;;4.97;;
8435;SDS011;4255;48.730;9.156;2024-01-16T10:12:08;6.57;;;5.05;;
8435;SDS011;4255;48.730;9.156;2024-01-16T10:14:35;4.97;;;4.40;;
8435;SDS011;4255;48.730;9.156;2024-01-16T10:17:04;5.00;;;4.60;;
8435;SDS011;4255;48.730;9.156;2024-01-16T10:19:47;4.43;;;4.00;;
8435;SDS011;4255;48.730;9.156;2024-01-16T10:22:21;5.35;;;4.75;;
8435;SDS011;4255;48.730;9.156;2024-01-16T10:24:50;6.13;;;4.43;;
8435;SDS011;4255;48.730;9.156;2024-01-16T10:27:28;6.90;;;5.45;;
8435;SDS011;4255;48.730;9.156;2024-01-16T10:29:56;6.80;;;4.90;;
8435;SDS011;4255;48.730;9.156;2024-01-16T10:32:29;6.40;;;4.13;;
8435;SDS011;4255;48.730;9.156;2024-01-16T10:35:11;4.88;;;3.90;;
8435;SDS011;4255;48.730;9.156;2024-01-16T10:37:45;5.97;;;4.88;;
8435;SDS011;4255;48.730;9.156;2024-01-16T10:40:16;5.35;;;4.93;;
8435;SDS011;4255;48.730;9.156;2024-01-16T10:42:44;6.70;;;4.88;;
8435;SDS011;4255;48.730;9.156;2024-01-16T10:45:17;4.30;;;3.33;;
8435;SDS011;4255;48.730;9.156;2024-01-16T10:47:45;4.90;;;4.20;;
8435;SDS011;4255;48.730;9.156;2024-01-16T10:50:11;5.28;;;4.80;;
8435;SDS011;4255;48.730;9.156;2024-01-16T10:52:39;9.90;;;4.47;;
8435;SDS011;4255;48.730;9.156;2024-01-16T10:55:11;5.47;;;4.65;;
8435;SDS011;4255;48.730;9.156;2024-01-16T10:57:43;4.60;;;3.97;;
8435;SDS011;4255;48.730;9.156;2024-01-16T11:00:08;4.63;;;4.13;;
8435;SDS011;4255;48.730;9.156;2024-01-16T11:02:43;5.25;;;4.57;;
8435;SDS011;4255;48.730;9.156;2024-01-16T11:05:13;6.55;;;4.63;;
8435;SDS011;4255;48.730;9.156;2024-01-16T11:07:41;6.70;;;4.43;;
8435;SDS011;4255;48.730;9.156;2024-01-16T11:10:08;10.68;;;4.50;;
8435;SDS011;4255;48.730;9.156;2024-01-16T11:12:35;5.05;;;3.85;;
8435;SDS011;4255;48.730;9.156;2024-01-16T11:15:03;6.90;;;4.80;;
8435;SDS011;4255;48.730;9.156;2024-01-16T11:17:33;7.05;;;4.25;;
8435;SDS011;4255;48.730;9.156;2024-01-16T11:20:01;3.60;;;3.30;;
8435;SDS011;4255;48.730;9.156;2024-01-16T11:22:31;3.45;;;3.15;;
8435;SDS011;4255;48.730;9.156;2024-01-16T11:27:39;6.70;;;4.00;;
8435;SDS011;4255;48.730;9.156;2024-01-16T11:30:06;6.88;;;4.10;;
8435;SDS011;4255;48.730;9.156;2024-01-16T11:32:34;4.30;;;3.85;;
8435;SDS011;4255;48.730;9.156;2024-01-16T11:35:05;4.72;;;3.85;;
8435;SDS011;4255;48.730;9.156;2024-01-16T11:37:31;8.40;;;4.57;;
8435;SDS011;4255;48.730;9.156;2024-01-16T11:42:42;7.10;;;4.40;;
8435;SDS011;4255;48.730;9.156;2024-01-16T11:45:08;4.63;;;4.00;;
8435;SDS011;4255;48.730;9.156;2024-01-16T11:48:12;9.32;;;4.18;;
8435;SDS011;4255;48.730;9.156;2024-01-16T11:50:39;5.07;;;4.60;;
8435;SDS011;4255;48.730;9.156;2024-01-16T11:53:05;7.07;;;4.50;;
8435;SDS011;4255;48.730;9.156;2024-01-16T11:55:34;5.70;;;4.30;;
8435;SDS011;4255;48.730;9.156;2024-01-16T12:00:48;3.95;;;3.67;;
8435;SDS011;4255;48.730;9.156;2024-01-16T12:03:18;10.40;;;4.40;;
8435;SDS011;4255;48.730;9.156;2024-01-16T12:06:04;8.60;;;4.55;;
8435;SDS011;4255;48.730;9.156;2024-01-16T12:08:31;9.50;;;3.88;;
8435;SDS011;4255;48.730;9.156;2024-01-16T12:10:57;4.73;;;4.17;;
8435;SDS011;4255;48.730;9.156;2024-01-16T12:13:24;4.38;;;3.80;;
8435;SDS011;4255;48.730;9.156;2024-01-16T12:15:58;7.07;;;3.70;;
8435;SDS011;4255;48.730;9.156;2024-01-16T12:18:29;5.43;;;3.45;;
8435;SDS011;4255;48.730;9.156;2024-01-16T12:20:55;4.88;;;3.60;;
8435;SDS011;4255;48.730;9.156;2024-01-16T12:23:20;3.53;;;3.23;;
8435;SDS011;4255;48.730;9.156;2024-01-16T12:25:51;5.00;;;3.75;;
8435;SDS011;4255;48.730;9.156;2024-01-16T12:28:19;5.38;;;3.38;;
8435;SDS011;4255;48.730;9.156;2024-01-16T12:30:49;3.35;;;2.95;;
8435;SDS011;4255;48.730;9.156;2024-01-16T12:33:16;4.38;;;3.45;;
8435;SDS011;4255;48.730;9.156;2024-01-16T12:35:46;3.45;;;3.25;;
8435;SDS011;4255;48.730;9.156;2024-01-16T12:38:12;2.87;;;2.67;;
8435;SDS011;4255;48.730;9.156;2024-01-16T12:40:44;3.40;;;3.00;;
8435;SDS011;4255;48.730;9.156;2024-01-16T12:43:12;3.47;;;3.17;;
8435;SDS011;4255;48.730;9.156;2024-01-16T12:45:38;6.10;;;3.37;;
8435;SDS011;4255;48.730;9.156;2024-01-16T12:48:04;6.20;;;4.30;;
8435;SDS011;4255;48.730;9.156;2024-01-16T12:50:30;4.93;;;3.05;;
8435;SDS011;4255;48.730;9.156;2024-01-16T12:53:04;4.07;;;3.30;;
8435;SDS011;4255;48.730;9.156;2024-01-16T12:55:36;10.40;;;3.67;;
8435;SDS011;4255;48.730;9.156;2024-01-16T12:58:16;3.40;;;3.10;;
8435;SDS011;4255;48.730;9.156;2024-01-16T13:00:42;3.90;;;3.45;;
8435;SDS011;4255;48.730;9.156;2024-01-16T13:03:19;4.72;;;3.70;;
8435;SDS011;4255;48.730;9.156;2024-01-16T13:05:45;3.63;;;3.30;;
8435;SDS011;4255;48.730;9.156;2024-01-16T13:08:19;3.63;;;3.38;;
8435;SDS011;4255;48.730;9.156;2024-01-16T13:10:45;7.45;;;4.80;;
8435;SDS011;4255;48.730;9.156;2024-01-16T13:15:42;3.72;;;3.42;;
8435;SDS011;4255;48.730;9.156;2024-01-16T13:18:18;10.18;;;3.40;;
8435;SDS011;4255;48.730;9.156;2024-01-16T13:20:49;5.88;;;4.03;;
8435;SDS011;4255;48.730;9.156;2024-01-16T13:23:15;8.30;;;3.83;;
8435;SDS011;4255;48.730;9.156;2024-01-16T13:25:42;4.18;;;3.83;;
8435;SDS011;4255;48.730;9.156;2024-01-16T13:28:18;6.72;;;4.18;;
8435;SDS011;4255;48.730;9.156;2024-01-16T13:30:45;4.50;;;4.07;;
8435;SDS011;4255;48.730;9.156;2024-01-16T13:33:11;4.15;;;3.75;;
8435;SDS011;4255;48.730;9.156;2024-01-16T13:35:39;3.40;;;3.10;;
8435;SDS011;4255;48.730;9.156;2024-01-16T13:38:08;3.53;;;3.30;;
8435;SDS011;4255;48.730;9.156;2024-01-16T13:40:35;3.50;;;3.17;;
8435;SDS011;4255;48.730;9.156;2024-01-16T13:43:02;5.00;;;4.50;;
8435;SDS011;4255;48.730;9.156;2024-01-16T13:45:28;3.80;;;3.40;;
8435;SDS011;4255;48.730;9.156;2024-01-16T13:47:54;3.43;;;3.10;;
8435;SDS011;4255;48.730;9.156;2024-01-16T13:50:21;3.70;;;3.35;;
8435;SDS011;4255;48.730;9.156;2024-01-16T13:52:46;4.20;;;3.67;;
8435;SDS011;4255;48.730;9.156;2024-01-16T13:55:12;3.80;;;3.50;;
8435;SDS011;4255;48.730;9.156;2024-01-16T13:57:38;4.33;;;3.90;;
8435;SDS011;4255;48.730;9.156;2024-01-16T14:00:05;7.93;;;3.78;;
8435;SDS011;4255;48.730;9.156;2024-01-16T14:02:32;4.28;;;3.83;;
8435;SDS011;4255;48.730;9.156;2024-01-16T14:05:03;4.65;;;3.75;;
8435;SDS011;4255;48.730;9.156;2024-01-16T14:07:30;6.85;;;4.22;;
8435;SDS011;4255;48.730;9.156;2024-01-16T14:09:56;5.63;;;4.63;;
8435;SDS011;4255;48.730;9.156;2024-01-16T14:12:22;5.07;;;4.13;;
8435;SDS011;4255;48.730;9.156;2024-01-16T14:14:49;4.63;;;3.25;;
8435;SDS011;4255;48.730;9.156;2024-01-16T14:17:16;6.78;;;4.32;;
8435;SDS011;4255;48.730;9.156;2024-01-16T14:19:41;5.03;;;3.70;;
8435;SDS011;4255;48.730;9.156;2024-01-16T14:22:07;10.73;;;4.00;;
8435;SDS011;4255;48.730;9.156;2024-01-16T14:24:33;4.03;;;3.47;;
8435;SDS011;4255;48.730;9.156;2024-01-16T14:26:59;4.57;;;4.20;;
8435;SDS011;4255;48.730;9.156;2024-01-16T14:29:24;3.90;;;3.30;;
8435;SDS011;4255;48.730;9.156;2024-01-16T14:31:51;3.90;;;3.55;;
8435;SDS011;4255;48.730;9.156;2024-01-16T14:34:17;5.53;;;3.87;;
8435;SDS011;4255;48.730;9.156;2024-01-16T14:36:44;6.75;;;3.72;;
8435;SDS011;4255;48.730;9.156;2024-01-16T14:39:10;11.70;;;4.72;;
8435;SDS011;4255;48.730;9.156;2024-01-16T14:41:38;3.95;;;3.65;;
8435;SDS011;4255;48.730;9.156;2024-01-16T14:44:06;6.75;;;4.82;;
8435;SDS011;4255;48.730;9.156;2024-01-16T14:46:34;5.20;;;4.45;;
8435;SDS011;4255;48.730;9.156;2024-01-16T14:49:00;8.90;;;4.17;;
8435;SDS011;4255;48.730;9.156;2024-01-16T14:51:27;4.75;;;3.85;;
8435;SDS011;4255;48.730;9.156;2024-01-16T14:53:52;3.90;;;3.33;;
8435;SDS011;4255;48.730;9.156;2024-01-16T14:56:18;3.53;;;3.23;;
8435;SDS011;4255;48.730;9.156;2024-01-16T14:58:45;4.05;;;3.58;;
8435;SDS011;4255;48.730;9.156;2024-01-16T15:01:10;7.40;;;3.97;;
8435;SDS011;4255;48.730;9.156;2024-01-16T15:03:36;4.63;;;4.20;;
8435;SDS011;4255;48.730;9.156;2024-01-16T15:06:01;4.80;;;4.40;;
8435;SDS011;4255;48.730;9.156;2024-01-16T15:08:27;4.97;;;4.50;;
8435;SDS011;4255;48.730;9.156;2024-01-16T15:10:56;5.07;;;4.22;;
8435;SDS011;4255;48.730;9.156;2024-01-16T15:13:22;5.80;;;4.07;;
8435;SDS011;4255;48.730;9.156;2024-01-16T15:15:48;4.43;;;4.03;;
8435;SDS011;4255;48.730;9.156;2024-01-16T15:18:16;5.03;;;4.63;;
8435;SDS011;4255;48.730;9.156;2024-01-16T15:20:41;8.73;;;5.37;;